sensor_id;sensor_type;location;lat;lon;timestamp;pressure;altitude;pressure_sealevel;temperature;humidity
74975;BME280;68459;50.836;19.138;2024-01-07T00:00:59;98232.72;;;-2.58;81.49
74975;BME280;68459;50.836;19.138;2024-01-07T00:04:24;98242.75;;;-2.62;81.71
74975;BME280;68459;50.836;19.138;2024-01-07T00:07:28;98234.16;;;-2.64;81.37
74975;BME280;68459;50.836;19.138;2024-01-07T00:10:31;98243.19;;;-2.66;81.71
74975;BME280;68459;50.836;19.138;2024-01-07T00:13:37;98245.84;;;-2.66;81.11
74975;BME280;68459;50.836;19.138;2024-01-07T00:16:40;98249.63;;;-2.69;81.80
74975;BME280;68459;50.836;19.138;2024-01-07T00:19:44;98237.25;;;-2.68;81.76
74975;BME280;68459;50.836;19.138;2024-01-07T00:22:48;98246.31;;;-2.71;81.72
74975;BME280;68459;50.836;19.138;2024-01-07T00:25:52;98246.44;;;-2.72;81.67
74975;BME280;68459;50.836;19.138;2024-01-07T00:28:58;98250.50;;;-2.78;81.38
74975;BME280;68459;50.836;19.138;2024-01-07T00:32:02;98247.66;;;-2.84;81.21
74975;BME280;68459;50.836;19.138;2024-01-07T00:35:07;98254.19;;;-2.89;81.30
74975;BME280;68459;50.836;19.138;2024-01-07T00:38:11;98251.56;;;-2.89;81.16
74975;BME280;68459;50.836;19.138;2024-01-07T00:41:16;98252.53;;;-2.90;81.53
74975;BME280;68459;50.836;19.138;2024-01-07T00:44:21;98257.13;;;-2.92;81.14
74975;BME280;68459;50.836;19.138;2024-01-07T00:47:25;98266.34;;;-2.96;81.74
74975;BME280;68459;50.836;19.138;2024-01-07T00:50:29;98260.81;;;-3.02;81.53
74975;BME280;68459;50.836;19.138;2024-01-07T00:53:33;98262.91;;;-3.06;80.81
74975;BME280;68459;50.836;19.138;2024-01-07T00:56:37;98257.25;;;-3.11;81.51
74975;BME280;68459;50.836;19.138;2024-01-07T00:59:42;98263.78;;;-3.15;81.44
74975;BME280;68459;50.836;19.138;2024-01-07T01:02:46;98255.88;;;-3.15;81.20
74975;BME280;68459;50.836;19.138;2024-01-07T01:05:50;98261.16;;;-3.15;81.17
74975;BME280;68459;50.836;19.138;2024-01-07T01:08:54;98270.03;;;-3.16;81.54
74975;BME280;68459;50.836;19.138;2024-01-07T01:11:58;98261.44;;;-3.18;81.18
74975;BME280;68459;50.836;19.138;2024-01-07T01:15:04;98262.97;;;-3.15;81.52
74975;BME280;68459;50.836;19.138;2024-01-07T01:18:08;98267.25;;;-3.14;81.50
74975;BME280;68459;50.836;19.138;2024-01-07T01:21:12;98263.94;;;-3.16;81.31
74975;BME280;68459;50.836;19.138;2024-01-07T01:24:16;98267.69;;;-3.19;80.96
74975;BME280;68459;50.836;19.138;2024-01-07T01:27:20;98266.56;;;-3.16;81.52
74975;BME280;68459;50.836;19.138;2024-01-07T01:30:25;98271.56;;;-3.13;81.41
74975;BME280;68459;50.836;19.138;2024-01-07T01:33:30;98267.03;;;-3.21;80.83
74975;BME280;68459;50.836;19.138;2024-01-07T01:36:34;98265.06;;;-3.19;81.18
74975;BME280;68459;50.836;19.138;2024-01-07T01:39:40;98270.34;;;-3.19;81.41
74975;BME280;68459;50.836;19.138;2024-01-07T01:42:44;98276.75;;;-3.21;80.78
74975;BME280;68459;50.836;19.138;2024-01-07T01:45:49;98269.00;;;-3.23;81.49
74975;BME280;68459;50.836;19.138;2024-01-07T01:48:53;98278.69;;;-3.24;80.92
74975;BME280;68459;50.836;19.138;2024-01-07T01:51:58;98271.47;;;-3.21;80.72
74975;BME280;68459;50.836;19.138;2024-01-07T01:55:03;98263.16;;;-3.27;80.80
74975;BME280;68459;50.836;19.138;2024-01-07T01:58:08;98275.81;;;-3.30;81.09
74975;BME280;68459;50.836;19.138;2024-01-07T02:01:14;98270.00;;;-3.34;80.93
74975;BME280;68459;50.836;19.138;2024-01-07T02:04:18;98275.94;;;-3.32;80.96
74975;BME280;68459;50.836;19.138;2024-01-07T02:07:22;98282.38;;;-3.34;81.27
74975;BME280;68459;50.836;19.138;2024-01-07T02:10:26;98272.09;;;-3.37;80.98
74975;BME280;68459;50.836;19.138;2024-01-07T02:13:31;98276.00;;;-3.41;80.82
74975;BME280;68459;50.836;19.138;2024-01-07T02:16:36;98280.72;;;-3.45;80.53
74975;BME280;68459;50.836;19.138;2024-01-07T02:19:40;98285.47;;;-3.48;80.69
74975;BME280;68459;50.836;19.138;2024-01-07T02:22:44;98284.66;;;-3.49;81.36
74975;BME280;68459;50.836;19.138;2024-01-07T02:25:49;98288.81;;;-3.46;80.72
74975;BME280;68459;50.836;19.138;2024-01-07T02:28:54;98285.47;;;-3.48;80.90
74975;BME280;68459;50.836;19.138;2024-01-07T02:31:58;98290.06;;;-3.50;80.67
74975;BME280;68459;50.836;19.138;2024-01-07T02:35:02;98287.41;;;-3.50;81.17
74975;BME280;68459;50.836;19.138;2024-01-07T02:38:06;98287.41;;;-3.50;81.12
74975;BME280;68459;50.836;19.138;2024-01-07T02:41:11;98300.03;;;-3.54;80.68
74975;BME280;68459;50.836;19.138;2024-01-07T02:44:15;98297.81;;;-3.59;80.97
74975;BME280;68459;50.836;19.138;2024-01-07T02:47:19;98295.50;;;-3.62;80.64
74975;BME280;68459;50.836;19.138;2024-01-07T02:50:23;98298.97;;;-3.61;81.29
74975;BME280;68459;50.836;19.138;2024-01-07T02:53:27;98304.66;;;-3.66;81.30
74975;BME280;68459;50.836;19.138;2024-01-07T02:56:32;98302.31;;;-3.69;80.69
74975;BME280;68459;50.836;19.138;2024-01-07T02:59:36;98305.50;;;-3.65;80.69
74975;BME280;68459;50.836;19.138;2024-01-07T03:02:40;98303.00;;;-3.67;81.08
74975;BME280;68459;50.836;19.138;2024-01-07T03:05:44;98295.78;;;-3.65;81.37
74975;BME280;68459;50.836;19.138;2024-01-07T03:08:48;98297.44;;;-3.64;80.81
74975;BME280;68459;50.836;19.138;2024-01-07T03:11:54;98307.28;;;-3.66;81.24
74975;BME280;68459;50.836;19.138;2024-01-07T03:14:58;98304.09;;;-3.69;81.22
74975;BME280;68459;50.836;19.138;2024-01-07T03:18:02;98312.16;;;-3.71;80.78
74975;BME280;68459;50.836;19.138;2024-01-07T03:21:16;98309.81;;;-3.74;80.86
74975;BME280;68459;50.836;19.138;2024-01-07T03:24:21;98301.91;;;-3.74;81.03
74975;BME280;68459;50.836;19.138;2024-01-07T03:27:26;98303.56;;;-3.73;81.10
74975;BME280;68459;50.836;19.138;2024-01-07T03:30:31;98306.75;;;-3.69;81.14
74975;BME280;68459;50.836;19.138;2024-01-07T03:33:35;98312.16;;;-3.71;80.81
74975;BME280;68459;50.836;19.138;2024-01-07T03:36:39;98310.09;;;-3.77;80.91
74975;BME280;68459;50.836;19.138;2024-01-07T03:39:44;98322.72;;;-3.80;80.99
74975;BME280;68459;50.836;19.138;2024-01-07T03:42:49;98310.78;;;-3.84;80.88
74975;BME280;68459;50.836;19.138;2024-01-07T03:45:53;98312.91;;;-3.88;80.70
74975;BME280;68459;50.836;19.138;2024-01-07T03:48:57;98315.53;;;-3.88;81.03
74975;BME280;68459;50.836;19.138;2024-01-07T03:52:01;98314.97;;;-3.91;80.60
74975;BME280;68459;50.836;19.138;2024-01-07T03:55:06;98308.59;;;-3.89;80.88
74975;BME280;68459;50.836;19.138;2024-01-07T03:58:12;98322.75;;;-3.90;81.21
74975;BME280;68459;50.836;19.138;2024-01-07T04:01:16;98317.47;;;-3.90;80.88
74975;BME280;68459;50.836;19.138;2024-01-07T04:04:21;98327.31;;;-3.92;80.57
74975;BME280;68459;50.836;19.138;2024-01-07T04:07:25;98314.97;;;-3.91;80.86
74975;BME280;68459;50.836;19.138;2024-01-07T04:10:29;98324.69;;;-3.92;80.92
74975;BME280;68459;50.836;19.138;2024-01-07T04:13:35;98316.91;;;-3.93;80.98
74975;BME280;68459;50.836;19.138;2024-01-07T04:16:39;98325.25;;;-3.88;80.68
74975;BME280;68459;50.836;19.138;2024-01-07T04:19:43;98331.03;;;-3.85;81.11
74975;BME280;68459;50.836;19.138;2024-01-07T04:22:47;98331.03;;;-3.85;80.65
74975;BME280;68459;50.836;19.138;2024-01-07T04:25:51;98340.47;;;-3.82;80.76
74975;BME280;68459;50.836;19.138;2024-01-07T04:28:56;98334.38;;;-3.83;80.74
74975;BME280;68459;50.836;19.138;2024-01-07T04:32:00;98336.88;;;-3.91;80.52
74975;BME280;68459;50.836;19.138;2024-01-07T04:35:04;98335.22;;;-3.92;80.84
74975;BME280;68459;50.836;19.138;2024-01-07T04:38:08;98339.78;;;-3.94;80.98
74975;BME280;68459;50.836;19.138;2024-01-07T04:41:12;98350.19;;;-3.92;80.51
74975;BME280;68459;50.836;19.138;2024-01-07T04:44:18;98346.44;;;-3.90;80.98
74975;BME280;68459;50.836;19.138;2024-01-07T04:47:26;98356.97;;;-3.90;80.76
74975;BME280;68459;50.836;19.138;2024-01-07T04:50:31;98348.38;;;-3.92;80.23
74975;BME280;68459;50.836;19.138;2024-01-07T04:53:35;98351.75;;;-4.00;80.21
74975;BME280;68459;50.836;19.138;2024-01-07T04:56:39;98354.63;;;-4.03;80.67
74975;BME280;68459;50.836;19.138;2024-01-07T04:59:45;98353.81;;;-4.03;80.96
74975;BME280;68459;50.836;19.138;2024-01-07T05:02:49;98357.81;;;-3.99;81.01
74975;BME280;68459;50.836;19.138;2024-01-07T05:05:52;98363.75;;;-3.97;81.11
74975;BME280;68459;50.836;19.138;2024-01-07T05:08:57;98359.34;;;-3.97;80.42
74975;BME280;68459;50.836;19.138;2024-01-07T05:12:01;98359.47;;;-3.98;80.85
74975;BME280;68459;50.836;19.138;2024-01-07T05:15:07;98359.78;;;-4.01;80.73
74975;BME280;68459;50.836;19.138;2024-01-07T05:18:12;98363.25;;;-4.01;80.75
74975;BME280;68459;50.836;19.138;2024-01-07T05:21:20;98373.59;;;-3.99;80.34
74975;BME280;68459;50.836;19.138;2024-01-07T05:24:24;98367.38;;;-3.98;80.57
74975;BME280;68459;50.836;19.138;2024-01-07T05:27:28;98371.13;;;-4.01;80.29
74975;BME280;68459;50.836;19.138;2024-01-07T05:30:33;98376.94;;;-3.97;80.44
74975;BME280;68459;50.836;19.138;2024-01-07T05:33:37;98374.03;;;-3.94;81.05
74975;BME280;68459;50.836;19.138;2024-01-07T05:36:42;98367.78;;;-3.93;80.58
74975;BME280;68459;50.836;19.138;2024-01-07T05:39:45;98376.41;;;-3.91;80.88
74975;BME280;68459;50.836;19.138;2024-01-07T05:42:49;98374.59;;;-3.90;80.54
74975;BME280;68459;50.836;19.138;2024-01-07T05:45:55;98379.72;;;-3.89;80.97
74975;BME280;68459;50.836;19.138;2024-01-07T05:48:59;98385.00;;;-3.89;80.91
74975;BME280;68459;50.836;19.138;2024-01-07T05:52:04;98385.00;;;-3.89;80.73
74975;BME280;68459;50.836;19.138;2024-01-07T05:55:08;98398.44;;;-3.92;80.58
74975;BME280;68459;50.836;19.138;2024-01-07T05:58:12;98394.84;;;-4.01;80.21
74975;BME280;68459;50.836;19.138;2024-01-07T06:01:20;98393.44;;;-4.05;80.26
74975;BME280;68459;50.836;19.138;2024-01-07T06:04:25;98392.88;;;-4.08;80.90
74975;BME280;68459;50.836;19.138;2024-01-07T06:07:29;98398.28;;;-4.10;80.78
74975;BME280;68459;50.836;19.138;2024-01-07T06:10:33;98405.34;;;-4.10;80.91
74975;BME280;68459;50.836;19.138;2024-01-07T06:13:37;98402.31;;;-4.15;80.64
74975;BME280;68459;50.836;19.138;2024-01-07T06:16:42;98407.00;;;-4.19;80.30
74975;BME280;68459;50.836;19.138;2024-01-07T06:19:46;98419.34;;;-4.19;80.49
74975;BME280;68459;50.836;19.138;2024-01-07T06:22:51;98422.13;;;-4.21;80.09
74975;BME280;68459;50.836;19.138;2024-01-07T06:25:54;98417.13;;;-4.24;80.15
74975;BME280;68459;50.836;19.138;2024-01-07T06:28:58;98420.88;;;-4.26;80.53
74975;BME280;68459;50.836;19.138;2024-01-07T06:32:04;98425.00;;;-4.24;80.63
74975;BME280;68459;50.836;19.138;2024-01-07T06:35:09;98430.41;;;-4.25;80.03
74975;BME280;68459;50.836;19.138;2024-01-07T06:38:12;98435.84;;;-4.27;80.10
74975;BME280;68459;50.836;19.138;2024-01-07T06:41:17;98438.31;;;-4.25;80.13
74975;BME280;68459;50.836;19.138;2024-01-07T06:44:21;98435.53;;;-4.24;80.13
74975;BME280;68459;50.836;19.138;2024-01-07T06:47:26;98438.31;;;-4.25;79.99
74975;BME280;68459;50.836;19.138;2024-01-07T06:50:31;98440.25;;;-4.27;80.04
74975;BME280;68459;50.836;19.138;2024-01-07T06:53:35;98445.66;;;-4.29;80.27
74975;BME280;68459;50.836;19.138;2024-01-07T06:56:38;98437.75;;;-4.29;80.18
74975;BME280;68459;50.836;19.138;2024-01-07T06:59:42;98451.34;;;-4.24;79.71
74975;BME280;68459;50.836;19.138;2024-01-07T07:02:47;98451.06;;;-4.21;79.87
74975;BME280;68459;50.836;19.138;2024-01-07T07:05:51;98451.91;;;-4.20;80.18
74975;BME280;68459;50.836;19.138;2024-01-07T07:08:55;98447.19;;;-4.26;80.37
74975;BME280;68459;50.836;19.138;2024-01-07T07:11:59;98451.06;;;-4.31;80.12
74975;BME280;68459;50.836;19.138;2024-01-07T07:15:04;98455.88;;;-4.36;80.07
74975;BME280;68459;50.836;19.138;2024-01-07T07:18:10;98461.56;;;-4.40;79.70
74975;BME280;68459;50.836;19.138;2024-01-07T07:21:14;98457.69;;;-4.36;79.85
74975;BME280;68459;50.836;19.138;2024-01-07T07:24:18;98460.75;;;-4.31;80.03
74975;BME280;68459;50.836;19.138;2024-01-07T07:27:21;98462.56;;;-4.32;79.69
74975;BME280;68459;50.836;19.138;2024-01-07T07:30:25;98470.19;;;-4.28;80.20
74975;BME280;68459;50.836;19.138;2024-01-07T07:33:31;98465.19;;;-4.32;79.44
74975;BME280;68459;50.836;19.138;2024-01-07T07:36:35;98472.50;;;-4.35;79.39
74975;BME280;68459;50.836;19.138;2024-01-07T07:39:39;98468.78;;;-4.33;79.52
74975;BME280;68459;50.836;19.138;2024-01-07T07:42:43;98479.88;;;-4.29;79.71
74975;BME280;68459;50.836;19.138;2024-01-07T07:45:46;98480.44;;;-4.25;79.92
74975;BME280;68459;50.836;19.138;2024-01-07T07:48:52;98483.91;;;-4.25;79.96
74975;BME280;68459;50.836;19.138;2024-01-07T07:51:56;98482.53;;;-4.19;80.08
74975;BME280;68459;50.836;19.138;2024-01-07T07:55:01;98486.00;;;-4.09;79.71
74975;BME280;68459;50.836;19.138;2024-01-07T07:58:04;98477.31;;;-4.00;79.77
74975;BME280;68459;50.836;19.138;2024-01-07T08:01:09;98482.84;;;-3.93;79.51
74975;BME280;68459;50.836;19.138;2024-01-07T08:04:14;98484.25;;;-3.89;79.28
74975;BME280;68459;50.836;19.138;2024-01-07T08:07:18;98490.06;;;-3.86;79.08
74975;BME280;68459;50.836;19.138;2024-01-07T08:10:22;98489.38;;;-3.78;79.70
74975;BME280;68459;50.836;19.138;2024-01-07T08:13:26;98482.59;;;-3.71;79.25
74975;BME280;68459;50.836;19.138;2024-01-07T08:16:30;98486.34;;;-3.64;79.55
74975;BME280;68459;50.836;19.138;2024-01-07T08:19:36;98492.72;;;-3.67;78.64
74975;BME280;68459;50.836;19.138;2024-01-07T08:22:40;98494.13;;;-3.63;79.44
74975;BME280;68459;50.836;19.138;2024-01-07T08:25:44;98489.66;;;-3.52;79.03
74975;BME280;68459;50.836;19.138;2024-01-07T08:28:48;98488.13;;;-3.45;78.96
74975;BME280;68459;50.836;19.138;2024-01-07T08:31:52;98485.78;;;-3.39;79.14
74975;BME280;68459;50.836;19.138;2024-01-07T08:34:57;98497.72;;;-3.35;78.89
74975;BME280;68459;50.836;19.138;2024-01-07T08:38:02;98492.44;;;-3.25;79.05
74975;BME280;68459;50.836;19.138;2024-01-07T08:41:06;98494.47;;;-3.19;78.41
74975;BME280;68459;50.836;19.138;2024-01-07T08:44:10;98497.13;;;-3.19;79.20
74975;BME280;68459;50.836;19.138;2024-01-07T08:47:14;98504.91;;;-3.17;78.28
74975;BME280;68459;50.836;19.138;2024-01-07T08:50:19;98508.91;;;-3.13;78.62
74975;BME280;68459;50.836;19.138;2024-01-07T08:53:23;98501.97;;;-3.14;77.79
74975;BME280;68459;50.836;19.138;2024-01-07T08:56:27;98508.78;;;-3.12;78.88
74975;BME280;68459;50.836;19.138;2024-01-07T08:59:32;98518.22;;;-3.09;78.44
74975;BME280;68459;50.836;19.138;2024-01-07T09:02:36;98520.16;;;-3.02;78.64
74975;BME280;68459;50.836;19.138;2024-01-07T09:05:46;98525.16;;;-2.99;78.15
74975;BME280;68459;50.836;19.138;2024-01-07T09:08:50;98533.75;;;-2.97;78.23
74975;BME280;68459;50.836;19.138;2024-01-07T09:11:54;98530.66;;;-2.92;78.47
74975;BME280;68459;50.836;19.138;2024-01-07T09:14:59;98532.19;;;-2.90;78.76
74975;BME280;68459;50.836;19.138;2024-01-07T09:18:04;98537.75;;;-2.83;78.39
74975;BME280;68459;50.836;19.138;2024-01-07T09:21:10;98531.38;;;-2.80;78.44
74975;BME280;68459;50.836;19.138;2024-01-07T09:24:15;98535.94;;;-2.82;78.46
74975;BME280;68459;50.836;19.138;2024-01-07T09:27:19;98525.25;;;-2.91;78.29
74975;BME280;68459;50.836;19.138;2024-01-07T09:30:23;98524.56;;;-2.93;78.31
74975;BME280;68459;50.836;19.138;2024-01-07T09:33:27;98530.53;;;-2.91;78.44
74975;BME280;68459;50.836;19.138;2024-01-07T09:36:32;98533.16;;;-2.91;77.75
74975;BME280;68459;50.836;19.138;2024-01-07T09:39:38;98526.50;;;-2.85;78.50
74975;BME280;68459;50.836;19.138;2024-01-07T09:42:43;98526.38;;;-2.83;77.80
74975;BME280;68459;50.836;19.138;2024-01-07T09:45:48;98525.25;;;-2.91;77.90
74975;BME280;68459;50.836;19.138;2024-01-07T09:48:54;98517.66;;;-2.94;78.27
74975;BME280;68459;50.836;19.138;2024-01-07T09:52:00;98521.81;;;-3.01;78.06
74975;BME280;68459;50.836;19.138;2024-01-07T09:55:07;98521.13;;;-3.03;77.61
74975;BME280;68459;50.836;19.138;2024-01-07T09:58:13;98515.69;;;-3.01;78.51
74975;BME280;68459;50.836;19.138;2024-01-07T10:01:17;98514.59;;;-2.99;78.09
74975;BME280;68459;50.836;19.138;2024-01-07T10:04:22;98508.59;;;-2.91;77.92
74975;BME280;68459;50.836;19.138;2024-01-07T10:07:28;98517.47;;;-2.82;77.92
74975;BME280;68459;50.836;19.138;2024-01-07T10:10:34;98507.31;;;-2.77;78.13
74975;BME280;68459;50.836;19.138;2024-01-07T10:13:39;98508.69;;;-2.73;77.87
74975;BME280;68459;50.836;19.138;2024-01-07T10:16:43;98516.75;;;-2.75;76.89
74975;BME280;68459;50.836;19.138;2024-01-07T10:19:48;98517.03;;;-2.68;77.45
74975;BME280;68459;50.836;19.138;2024-01-07T10:22:54;98516.44;;;-2.62;77.88
74975;BME280;68459;50.836;19.138;2024-01-07T10:25:58;98515.88;;;-2.56;77.33
74975;BME280;68459;50.836;19.138;2024-01-07T10:29:13;98514.31;;;-2.49;76.90
74975;BME280;68459;50.836;19.138;2024-01-07T10:32:19;98520.69;;;-2.42;77.16
74975;BME280;68459;50.836;19.138;2024-01-07T10:35:27;98517.31;;;-2.34;77.18
74975;BME280;68459;50.836;19.138;2024-01-07T10:38:35;98512.09;;;-2.26;76.84
74975;BME280;68459;50.836;19.138;2024-01-07T10:41:41;98514.59;;;-2.25;77.43
74975;BME280;68459;50.836;19.138;2024-01-07T10:44:46;98499.84;;;-2.18;77.45
74975;BME280;68459;50.836;19.138;2024-01-07T10:47:54;98507.28;;;-2.03;76.78
74975;BME280;68459;50.836;19.138;2024-01-07T10:50:59;98495.38;;;-1.90;76.83
74975;BME280;68459;50.836;19.138;2024-01-07T10:54:05;98499.91;;;-1.82;75.91
74975;BME280;68459;50.836;19.138;2024-01-07T10:57:13;98505.66;;;-1.69;76.49
74975;BME280;68459;50.836;19.138;2024-01-07T11:00:21;98505.06;;;-1.63;75.67
74975;BME280;68459;50.836;19.138;2024-01-07T11:03:30;98503.56;;;-1.65;75.72
74975;BME280;68459;50.836;19.138;2024-01-07T11:06:41;98497.50;;;-1.58;75.30
74975;BME280;68459;50.836;19.138;2024-01-07T11:09:59;98499.84;;;-1.55;74.21
74975;BME280;68459;50.836;19.138;2024-01-07T11:13:07;98506.94;;;-1.37;75.57
74975;BME280;68459;50.836;19.138;2024-01-07T11:16:11;98504.31;;;-1.37;74.76
74975;BME280;68459;50.836;19.138;2024-01-07T11:19:15;98505.81;;;-1.35;75.97
74975;BME280;68459;50.836;19.138;2024-01-07T11:22:23;98510.44;;;-1.37;75.29
74975;BME280;68459;50.836;19.138;2024-01-07T11:25:32;98507.53;;;-1.44;74.81
74975;BME280;68459;50.836;19.138;2024-01-07T11:28:44;98511.94;;;-1.52;74.69
74975;BME280;68459;50.836;19.138;2024-01-07T11:31:52;98509.16;;;-1.51;74.99
74975;BME280;68459;50.836;19.138;2024-01-07T11:34:57;98522.97;;;-1.57;74.63
74975;BME280;68459;50.836;19.138;2024-01-07T11:38:02;98512.59;;;-1.68;74.98
74975;BME280;68459;50.836;19.138;2024-01-07T11:41:09;98523.00;;;-1.84;75.14
74975;BME280;68459;50.836;19.138;2024-01-07T11:44:15;98522.25;;;-1.94;75.55
74975;BME280;68459;50.836;19.138;2024-01-07T11:47:20;98510.47;;;-2.00;75.26
74975;BME280;68459;50.836;19.138;2024-01-07T11:50:24;98529.97;;;-2.10;75.21
74975;BME280;68459;50.836;19.138;2024-01-07T11:53:30;98518.34;;;-2.18;75.07
74975;BME280;68459;50.836;19.138;2024-01-07T11:56:35;98514.31;;;-2.22;74.84
74975;BME280;68459;50.836;19.138;2024-01-07T11:59:40;98521.56;;;-2.24;74.37
74975;BME280;68459;50.836;19.138;2024-01-07T12:02:46;98527.81;;;-2.25;75.41
74975;BME280;68459;50.836;19.138;2024-01-07T12:05:50;98525.78;;;-2.31;75.49
74975;BME280;68459;50.836;19.138;2024-01-07T12:08:54;98525.81;;;-2.40;75.15
74975;BME280;68459;50.836;19.138;2024-01-07T12:11:59;98526.81;;;-2.51;74.70
74975;BME280;68459;50.836;19.138;2024-01-07T12:15:06;98531.72;;;-2.66;75.46
74975;BME280;68459;50.836;19.138;2024-01-07T12:18:11;98534.84;;;-2.80;75.59
74975;BME280;68459;50.836;19.138;2024-01-07T12:21:18;98524.84;;;-2.86;74.54
74975;BME280;68459;50.836;19.138;2024-01-07T12:24:24;98537.06;;;-2.85;75.51
74975;BME280;68459;50.836;19.138;2024-01-07T12:27:30;98531.22;;;-2.89;75.26
74975;BME280;68459;50.836;19.138;2024-01-07T12:30:34;98545.97;;;-2.96;75.32
74975;BME280;68459;50.836;19.138;2024-01-07T12:33:39;98542.09;;;-3.01;75.91
74975;BME280;68459;50.836;19.138;2024-01-07T12:36:43;98547.50;;;-3.03;75.73
74975;BME280;68459;50.836;19.138;2024-01-07T12:39:48;98552.25;;;-3.06;75.50
74975;BME280;68459;50.836;19.138;2024-01-07T12:42:53;98542.94;;;-3.10;75.20
74975;BME280;68459;50.836;19.138;2024-01-07T12:45:59;98552.66;;;-3.11;75.29
74975;BME280;68459;50.836;19.138;2024-01-07T12:49:07;98553.75;;;-3.13;75.28
74975;BME280;68459;50.836;19.138;2024-01-07T12:52:11;98552.09;;;-3.24;75.42
74975;BME280;68459;50.836;19.138;2024-01-07T12:55:15;98555.16;;;-3.29;75.65
74975;BME280;68459;50.836;19.138;2024-01-07T12:58:21;98565.13;;;-3.32;75.77
74975;BME280;68459;50.836;19.138;2024-01-07T13:01:25;98554.31;;;-3.29;75.24
74975;BME280;68459;50.836;19.138;2024-01-07T13:04:29;98561.53;;;-3.31;75.70
74975;BME280;68459;50.836;19.138;2024-01-07T13:07:33;98568.91;;;-3.35;75.98
74975;BME280;68459;50.836;19.138;2024-01-07T13:10:37;98571.38;;;-3.43;74.76
74975;BME280;68459;50.836;19.138;2024-01-07T13:13:42;98582.50;;;-3.49;75.78
74975;BME280;68459;50.836;19.138;2024-01-07T13:16:46;98582.19;;;-3.55;75.90
74975;BME280;68459;50.836;19.138;2024-01-07T13:19:50;98594.00;;;-3.60;75.52
74975;BME280;68459;50.836;19.138;2024-01-07T13:22:55;98589.94;;;-3.64;76.01
74975;BME280;68459;50.836;19.138;2024-01-07T13:25:59;98605.75;;;-3.64;75.73
74975;BME280;68459;50.836;19.138;2024-01-07T13:29:09;98601.72;;;-3.68;76.07
74975;BME280;68459;50.836;19.138;2024-01-07T13:32:13;98605.88;;;-3.75;75.75
74975;BME280;68459;50.836;19.138;2024-01-07T13:35:19;98599.34;;;-3.80;75.44
74975;BME280;68459;50.836;19.138;2024-01-07T13:38:24;98605.84;;;-3.84;75.51
74975;BME280;68459;50.836;19.138;2024-01-07T13:41:28;98611.41;;;-3.87;75.99
74975;BME280;68459;50.836;19.138;2024-01-07T13:44:36;98609.84;;;-3.90;75.74
74975;BME280;68459;50.836;19.138;2024-01-07T13:47:48;98616.09;;;-3.91;76.05
74975;BME280;68459;50.836;19.138;2024-01-07T13:50:52;98614.53;;;-3.93;76.26
74975;BME280;68459;50.836;19.138;2024-01-07T13:53:56;98618.00;;;-4.03;75.69
74975;BME280;68459;50.836;19.138;2024-01-07T13:57:01;98623.19;;;-4.12;75.95
74975;BME280;68459;50.836;19.138;2024-01-07T14:00:08;98630.94;;;-4.20;75.85
74975;BME280;68459;50.836;19.138;2024-01-07T14:03:13;98626.88;;;-4.24;76.27
74975;BME280;68459;50.836;19.138;2024-01-07T14:06:17;98636.19;;;-4.20;76.56
74975;BME280;68459;50.836;19.138;2024-01-07T14:09:22;98632.84;;;-4.22;76.42
74975;BME280;68459;50.836;19.138;2024-01-07T14:12:26;98638.38;;;-4.25;76.43
74975;BME280;68459;50.836;19.138;2024-01-07T14:15:31;98639.63;;;-4.29;76.56
74975;BME280;68459;50.836;19.138;2024-01-07T14:18:36;98640.72;;;-4.32;76.66
74975;BME280;68459;50.836;19.138;2024-01-07T14:21:40;98646.50;;;-4.38;76.28
74975;BME280;68459;50.836;19.138;2024-01-07T14:24:43;98648.00;;;-4.45;76.42
74975;BME280;68459;50.836;19.138;2024-01-07T14:27:48;98647.28;;;-4.47;76.54
74975;BME280;68459;50.836;19.138;2024-01-07T14:30:54;98648.38;;;-4.50;76.90
74975;BME280;68459;50.836;19.138;2024-01-07T14:33:58;98651.00;;;-4.50;76.94
74975;BME280;68459;50.836;19.138;2024-01-07T14:37:02;98651.28;;;-4.53;76.38
74975;BME280;68459;50.836;19.138;2024-01-07T14:40:07;98651.78;;;-4.59;76.63
74975;BME280;68459;50.836;19.138;2024-01-07T14:43:12;98655.19;;;-4.68;76.86
74975;BME280;68459;50.836;19.138;2024-01-07T14:46:17;98651.97;;;-4.72;76.53
74975;BME280;68459;50.836;19.138;2024-01-07T14:49:21;98656.53;;;-4.74;76.83
74975;BME280;68459;50.836;19.138;2024-01-07T14:52:25;98656.66;;;-4.75;76.50
74975;BME280;68459;50.836;19.138;2024-01-07T14:55:29;98662.16;;;-4.78;76.79
74975;BME280;68459;50.836;19.138;2024-01-07T14:58:33;98663.25;;;-4.81;76.32
74975;BME280;68459;50.836;19.138;2024-01-07T15:01:38;98668.53;;;-4.81;77.07
74975;BME280;68459;50.836;19.138;2024-01-07T15:04:46;98675.69;;;-4.83;76.53
74975;BME280;68459;50.836;19.138;2024-01-07T15:07:50;98680.13;;;-4.83;76.79
74975;BME280;68459;50.836;19.138;2024-01-07T15:10:54;98679.41;;;-4.85;76.90
74975;BME280;68459;50.836;19.138;2024-01-07T15:13:58;98681.22;;;-4.86;76.75
74975;BME280;68459;50.836;19.138;2024-01-07T15:17:04;98687.56;;;-4.88;76.82
74975;BME280;68459;50.836;19.138;2024-01-07T15:20:08;98684.22;;;-4.90;76.86
74975;BME280;68459;50.836;19.138;2024-01-07T15:23:14;98693.34;;;-4.94;77.14
74975;BME280;68459;50.836;19.138;2024-01-07T15:26:18;98688.44;;;-4.99;77.06
74975;BME280;68459;50.836;19.138;2024-01-07T15:29:22;98695.59;;;-5.01;76.96
74975;BME280;68459;50.836;19.138;2024-01-07T15:32:27;98695.41;;;-5.09;77.26
74975;BME280;68459;50.836;19.138;2024-01-07T15:35:31;98698.03;;;-5.09;77.48
74975;BME280;68459;50.836;19.138;2024-01-07T15:38:35;98705.94;;;-5.09;77.34
74975;BME280;68459;50.836;19.138;2024-01-07T15:41:39;98699.00;;;-5.10;77.42
74975;BME280;68459;50.836;19.138;2024-01-07T15:44:42;98700.06;;;-5.13;77.23
74975;BME280;68459;50.836;19.138;2024-01-07T15:47:48;98701.75;;;-5.12;77.24
74975;BME280;68459;50.836;19.138;2024-01-07T15:50:52;98700.66;;;-5.09;77.14
74975;BME280;68459;50.836;19.138;2024-01-07T15:53:56;98707.59;;;-5.08;77.28
74975;BME280;68459;50.836;19.138;2024-01-07T15:56:59;98703.19;;;-5.08;77.15
74975;BME280;68459;50.836;19.138;2024-01-07T16:00:05;98708.16;;;-5.05;77.17
74975;BME280;68459;50.836;19.138;2024-01-07T16:03:11;98709.84;;;-5.04;77.67
74975;BME280;68459;50.836;19.138;2024-01-07T16:06:16;98715.38;;;-5.07;77.19